Flight Track Log - Related Links

Times and Time Zones

All times are in EST time to prevent confusion due to time zone crossing. See the EGF3185 flight status page for this flight to view local times or setup timezone preferences in your user account.

Time Position Orientation Groundspeed Altitude Reporting Facility
EST Latitude Longitude Course Direction KTS MPH feet Rate Location/Type
Sun 06:40:14 PM 30.5292 -91.2297 292° West 246 283 28,000  Level Houston Center
Sun 06:41:00 PM 30.6502 -91.4206 319° Northwest  Level Estimated
Sun 06:41:16 PM 30.5764 -91.2817 317° Northwest 254 292 5,500  Level Houston Center
Sun 06:42:00 PM 30.6892 -91.5110 323° Northwest  Level Estimated
Sun 06:42:18 PM 30.6286 -91.3397 316° Northwest 259 298 8,000  Level Houston Center
Sun 06:43:00 PM 30.7741 -91.5331 347° North  Level FlightAware Approximate
Sun 06:43:20 PM 30.6686 -91.4117 303° West 265 305 10,000  Level Houston Center
Sun 06:44:00 PM 30.8120 -91.6242 291° West  Level Estimated
Sun 06:44:22 PM 30.7183 -91.5047 302° West 283 326 11,700  Level Houston Center
Sun 06:45:25 PM 30.7661 -91.5936 302° West 317 365 12,700 1,008 Climbing Houston Center
Sun 06:46:27 PM 30.8169 -91.6858 303° West 336 387 13,800 1,016 Climbing Houston Center
Sun 06:47:29 PM 30.8703 -91.7808 303° West 348 400 14,800 968 Climbing Houston Center
Sun 06:48:31 PM 30.9222 -91.8775 302° West 352 405 15,800 1,065 Climbing Houston Center
Sun 06:49:33 PM 30.9867 -91.9953 303° West 359 413 17,000 1,065 Climbing Houston Center
Sun 06:50:35 PM 31.0392 -92.0933 302° West 358 412 18,000 1,016 Climbing Houston Center
Sun 06:51:37 PM 31.0922 -92.1911 302° West 357 411 19,100 1,016 Climbing Houston Center
Sun 06:52:39 PM 31.1456 -92.2903 302° West 361 415 20,100 960 Climbing Houston Center
Sun 06:53:42 PM 31.1994 -92.3908 302° West 366 421 21,100 1,344 Climbing Houston Center
Sun 06:54:44 PM 31.2617 -92.5067 302° West 365 420 22,900 1,887 Climbing Houston Center
Sun 06:55:46 PM 31.3003 -92.6125 293° West 346 398 25,000 1,548 Climbing Houston Center
Sun 06:56:48 PM 31.3378 -92.7106 294° West 333 383 26,100 1,016 Climbing Houston Center
Sun 06:57:50 PM 31.3747 -92.8106 293° West 336 387 27,100 774 Climbing Houston Center
Sun 06:58:52 PM 31.4133 -92.9136 294° West 345 397 27,700 435 Climbing Houston Center
Sun 06:59:54 PM 31.4542 -93.0228 294° West 364 419 28,000 144 Climbing Houston Center
Sun 07:00:57 PM 31.5061 -93.1617 294° West 386 444 28,000  Level Houston Center
Sun 07:01:59 PM 31.5508 -93.2817 294° West 401 461 28,000  Level Houston Center
Sun 07:03:01 PM 31.5919 -93.3908 294° West 407 468 28,000  Level Houston Center
Sun 07:04:03 PM 31.6472 -93.5392 294° West 413 475 28,000  Level Houston Center
Sun 07:05:05 PM 31.6844 -93.6450 292° West 408 470 28,000  Level Houston Center
Sun 07:06:07 PM 31.7389 -93.7911 294° West 407 468 28,000  Level Houston Center
Sun 07:07:09 PM 31.7694 -93.9181 286° West 406 467 28,000  Level Houston Center
Sun 07:08:11 PM 31.7919 -94.0381 282° West 405 466 28,000  Level Houston Center
Sun 07:09:14 PM 31.8183 -94.1667 284° West 406 467 28,000  Level Houston Center
Sun 07:10:16 PM 31.8447 -94.3028 283° West 404 465 28,000  Level Houston Center
Sun 07:11:18 PM 31.8747 -94.4569 283° West 405 466 28,000  Level Houston Center
Sun 07:12:20 PM 31.8981 -94.5864 282° West 406 467 28,000  Level Houston Center
Sun 07:13:22 PM 31.9225 -94.7142 283° West 405 466 28,000  Level Houston Center
Sun 07:14:24 PM 31.8783 -94.8283 246° West 395 455 28,000  Level Houston Center
Sun 07:15:26 PM 31.8111 -94.9258 231° Southwest 387 445 28,000  Level Houston Center
Sun 07:16:29 PM 31.7331 -95.0356 230° Southwest 371 427 28,000 -81 Level Houston Center
Sun 07:17:55 PM 31.6906 -95.1881 252° West 381 438 27,800 -486 Descending Fort Worth Center
Sun 07:18:57 PM 31.7406 -95.3006 298° West 391 450 26,800 -968 Descending Fort Worth Center
Sun 07:19:59 PM 31.7928 -95.4067 300° West 380 437 25,800 -1,016 Descending Fort Worth Center
Sun 07:21:01 PM 31.8456 -95.5144 300° West 380 437 24,700 -1,258 Descending Fort Worth Center
Sun 07:22:03 PM 31.8978 -95.6200 300° West 376 433 23,200 -1,548 Descending Fort Worth Center
Sun 07:23:05 PM 31.9500 -95.7286 300° West 357 411 21,500 -1,742 Descending Fort Worth Center
Sun 07:24:07 PM 32.0017 -95.8358 300° West 374 430 19,600 -2,032 Descending Fort Worth Center
Sun 07:25:09 PM 32.0667 -95.9675 300° West 388 447 17,300 -2,032 Descending Fort Worth Center
Sun 07:26:11 PM 32.1183 -96.0728 300° West 374 430 15,400 -1,694 Descending Fort Worth Center
Sun 07:27:13 PM 32.1658 -96.1742 299° West 358 412 13,800 -1,694 Descending Fort Worth Center
Sun 07:28:15 PM 32.2325 -96.2711 309° West 352 405 11,900 -1,355 Descending Fort Worth Center
Sun 07:29:17 PM 32.2975 -96.3472 315° West 330 380 11,000 -432 Descending Fort Worth Center
Sun 07:30:20 PM 32.3647 -96.4206 317° Northwest 329 379 11,000 -240 Level Fort Worth Center
Sun 07:31:22 PM 32.4306 -96.4872 319° Northwest 289 333 10,500 -1,210 Descending Fort Worth Center
Sun 07:32:24 PM 32.4861 -96.5458 318° Northwest 271 312 8,500 -2,177 Descending Fort Worth Center
Sun 07:33:26 PM 32.5442 -96.6083 318° Northwest 264 304 6,000 -1,694 Descending Fort Worth Center
Sun 07:34:28 PM 32.6014 -96.6675 319° Northwest 271 312 5,000 -495 Descending Fort Worth Center
Sun 07:35:15 PM 32.6500 -96.7167 320° Northwest 260 299 5,100 56 Climbing Dallas / Fort Worth TRACON
Sun 07:36:15 PM 32.7000 -96.7667 320° Northwest 260 299 5,100 -350 Level Dallas / Fort Worth TRACON
Sun 07:37:15 PM 32.7500 -96.8167 320° Northwest 243 280 4,400 -900 Descending Dallas / Fort Worth TRACON
Sun 07:38:15 PM 32.7833 -96.8833 301° West 209 241 3,300 -1,050 Descending Dallas / Fort Worth TRACON
Sun 07:39:15 PM 32.8333 -96.9167 331° Northwest 182 209 2,300 -850 Descending Dallas / Fort Worth TRACON
Sun 07:40:15 PM 32.8500 -96.9500 301° West 138 159 1,600 -700 Descending Dallas / Fort Worth TRACON
Sun 07:41:15 PM 32.8833 -96.9833 320° Northwest 132 152 900 -700 Descending Dallas / Fort Worth TRACON
Sun 07:43:00 PM 32.8833 -97.0333 308° West  Level FlightAware Approximate
Sun 07:50:00 PM 32.8968 -97.0380 308° West  Level Estimated

Login

Don't have an account? Register now (free) for customized features, flight alerts, and more!